Time;durP1;ratioP1;P1;durP2;ratioP2;P2;SDS_P1;SDS_P2;PMS_P1;PMS_P2;Temp;Humidity;BMP_temperature;BMP_pressure;BME280_temperature;BME280_humidity;BME280_pressure;Samples;Min_cycle;Max_cycle;Signal;HPM_P1;HPM_P2
2022/01/28 00:04:48;;;;;;;28.67;5.95;;;5.30;99.90;;;;;;5034268;28;20049;-76
2022/01/28 00:07:13;;;;;;;32.28;7.68;;;5.30;99.90;;;;;;5034436;28;20053;-74
2022/01/28 00:09:39;;;;;;;22.70;5.95;;;5.30;99.90;;;;;;5033921;28;20053;-76
2022/01/28 00:12:07;;;;;;;26.55;4.68;;;5.30;99.90;;;;;;5037696;28;20060;-75
2022/01/28 00:14:45;;;;;;;23.60;5.82;;;5.40;99.90;;;;;;5038213;28;20375;-75
2022/01/28 00:38:47;;;;;;;18.70;4.55;;;5.50;99.90;;;;;;5018170;28;20054;-75
2022/01/28 00:41:14;;;;;;;15.50;4.53;;;5.50;99.90;;;;;;5035258;28;20076;-74
2022/01/28 00:43:40;;;;;;;19.10;4.50;;;5.40;99.90;;;;;;5036832;28;20041;-74
2022/01/28 00:46:06;;;;;;;22.38;5.20;;;5.40;99.90;;;;;;5036791;28;20119;-75
2022/01/28 00:48:32;;;;;;;22.35;4.95;;;5.30;99.90;;;;;;5037617;28;20049;-75
2022/01/28 00:50:58;;;;;;;21.40;5.60;;;5.40;99.90;;;;;;5037633;28;20539;-76
2022/01/28 00:53:23;;;;;;;18.63;4.28;;;5.30;99.90;;;;;;5037418;28;20052;-74
2022/01/28 00:55:49;;;;;;;22.02;5.40;;;5.30;99.90;;;;;;5037747;28;20391;-74
2022/01/28 00:58:14;;;;;;;18.45;3.90;;;5.20;99.90;;;;;;5037537;28;20048;-75
2022/01/28 01:00:40;;;;;;;25.58;5.45;;;5.20;99.90;;;;;;5037216;28;20056;-76
2022/01/28 01:03:06;;;;;;;20.15;4.53;;;5.20;99.90;;;;;;5037602;28;20072;-75
2022/01/28 01:05:34;;;;;;;28.55;4.50;;;5.20;99.90;;;;;;5036954;28;20053;-76
2022/01/28 01:08:00;;;;;;;20.27;4.70;;;5.20;99.90;;;;;;5037415;28;20060;-75
2022/01/28 01:10:27;;;;;;;23.85;4.60;;;5.30;99.90;;;;;;5036482;28;20384;-74
2022/01/28 01:12:53;;;;;;;27.92;5.05;;;5.20;99.90;;;;;;5037141;28;20049;-75
2022/01/28 01:15:22;;;;;;;25.67;4.75;;;5.30;99.90;;;;;;5037141;28;20049;-75
2022/01/28 01:17:59;;;;;;;28.30;5.35;;;5.30;99.90;;;;;;5037182;28;20053;-75
2022/01/28 01:23:14;;;;;;;18.15;4.70;;;5.30;99.90;;;;;;5034861;28;20199;-74
2022/01/28 01:25:50;;;;;;;19.45;4.47;;;5.20;99.90;;;;;;5036814;28;20115;-75
2022/01/28 01:28:19;;;;;;;17.85;3.92;;;5.30;99.90;;;;;;5036563;28;20068;-74
2022/01/28 01:30:45;;;;;;;20.20;4.90;;;5.20;99.90;;;;;;5037019;28;20041;-76
2022/01/28 01:33:15;;;;;;;22.60;4.18;;;5.20;99.90;;;;;;5036789;28;20053;-75
2022/01/28 01:35:40;;;;;;;22.67;5.28;;;5.20;99.90;;;;;;5036793;28;20075;-75
2022/01/28 01:38:08;;;;;;;32.08;5.65;;;5.20;99.90;;;;;;5036554;28;20470;-76
2022/01/28 01:40:43;;;;;;;26.58;4.88;;;5.30;99.90;;;;;;5036500;28;20184;-75
2022/01/28 01:43:27;;;;;;;24.63;6.68;;;5.30;99.90;;;;;;5036651;28;20045;-76
2022/01/28 01:53:57;;;;;;;22.33;6.57;;;5.40;99.90;;;;;;5036720;28;20042;-76
2022/01/28 01:56:24;;;;;;;25.48;6.38;;;5.30;99.90;;;;;;5035989;28;20037;-75
2022/01/28 01:58:50;;;;;;;33.40;6.07;;;5.40;99.90;;;;;;5036431;28;20053;-74
2022/01/28 02:01:15;;;;;;;32.20;6.00;;;5.40;99.90;;;;;;5035856;28;20100;-74
2022/01/28 02:03:41;;;;;;;30.30;6.80;;;5.40;99.90;;;;;;5036260;28;20053;-76
2022/01/28 02:06:06;;;;;;;22.42;5.53;;;5.50;99.90;;;;;;5036063;28;20454;-74
2022/01/28 02:08:34;;;;;;;35.83;6.55;;;5.50;99.90;;;;;;5036155;28;20058;-74
2022/01/28 02:11:00;;;;;;;33.78;5.85;;;5.50;99.90;;;;;;5036625;28;20053;-75
2022/01/28 02:13:29;;;;;;;26.75;6.35;;;5.50;99.90;;;;;;5036261;28;20059;-74
2022/01/28 02:15:56;;;;;;;29.85;5.22;;;5.50;99.90;;;;;;5036087;28;20049;-75
2022/01/28 02:18:22;;;;;;;38.22;7.90;;;5.50;99.90;;;;;;5035332;28;20049;-75
2022/01/28 02:20:51;;;;;;;28.13;6.88;;;5.40;99.90;;;;;;5035800;28;20029;-75
2022/01/28 02:23:17;;;;;;;34.35;6.60;;;5.40;99.90;;;;;;5036106;28;20052;-76
2022/01/28 02:25:44;;;;;;;36.10;6.90;;;5.40;99.90;;;;;;5033365;28;20052;-74
2022/01/28 02:28:12;;;;;;;47.17;7.97;;;5.40;99.90;;;;;;5019002;28;20084;-75
2022/01/28 02:30:38;;;;;;;35.40;6.22;;;5.30;99.90;;;;;;5035528;28;20054;-75
2022/01/28 02:33:13;;;;;;;31.00;6.60;;;5.20;99.90;;;;;;5035967;28;20050;-75
2022/01/28 02:35:42;;;;;;;38.83;6.95;;;5.20;99.90;;;;;;5035797;28;20100;-75
2022/01/28 02:38:08;;;;;;;39.95;7.43;;;5.30;99.90;;;;;;5035805;28;20095;-74
2022/01/28 02:40:35;;;;;;;40.05;5.85;;;5.30;99.90;;;;;;5035783;28;20053;-75
2022/01/28 02:43:31;;;;;;;35.38;6.20;;;5.30;99.90;;;;;;5035346;28;20053;-75
2022/01/28 02:45:52;;;;;;;38.95;6.72;;;5.30;99.90;;;;;;5032305;28;20145;-74
2022/01/28 02:48:24;;;;;;;29.75;6.03;;;5.40;99.90;;;;;;5035550;28;20060;-75
2022/01/28 02:53:30;;;;;;;34.53;7.07;;;5.50;99.90;;;;;;5035246;28;20049;-74
2022/01/28 02:56:00;;;;;;;33.50;6.60;;;5.60;99.90;;;;;;5035240;28;20069;-76
2022/01/28 02:58:26;;;;;;;29.02;7.03;;;5.60;99.90;;;;;;5034542;28;20546;-74
2022/01/28 03:00:57;;;;;;;34.58;6.40;;;5.50;99.90;;;;;;5035463;28;20128;-75
2022/01/28 03:03:23;;;;;;;34.72;6.95;;;5.50;99.90;;;;;;5035172;28;20033;-75
2022/01/28 03:05:53;;;;;;;27.70;6.78;;;5.50;99.90;;;;;;5034284;28;20045;-76
2022/01/28 03:08:22;;;;;;;27.60;6.15;;;5.50;99.90;;;;;;5034887;28;20154;-76
2022/01/28 03:16:21;;;;;;;35.20;6.43;;;5.30;99.90;;;;;;4986767;28;20049;-74
2022/01/28 03:18:57;;;;;;;26.20;6.03;;;5.30;99.90;;;;;;5015348;28;20053;-76
2022/01/28 03:21:40;;;;;;;31.77;7.22;;;5.20;99.90;;;;;;5014667;28;20384;-75
2022/01/28 03:24:08;;;;;;;31.42;6.07;;;5.20;99.90;;;;;;5015617;28;20077;-75
2022/01/28 03:26:34;;;;;;;32.78;5.82;;;5.20;99.90;;;;;;5030093;28;20046;-75
2022/01/28 03:29:00;;;;;;;22.52;5.68;;;5.30;99.90;;;;;;5034429;28;20049;-76
2022/01/28 03:31:25;;;;;;;28.48;5.55;;;5.30;99.90;;;;;;5033793;28;20367;-75
2022/01/28 03:33:51;;;;;;;31.88;6.90;;;5.30;99.90;;;;;;5034781;28;20455;-74
2022/01/28 03:36:16;;;;;;;28.75;6.85;;;5.30;99.90;;;;;;5034997;28;20148;-74
2022/01/28 03:38:43;;;;;;;22.67;5.22;;;5.40;99.90;;;;;;5034994;28;20130;-76
2022/01/28 03:41:16;;;;;;;27.42;6.10;;;5.30;99.90;;;;;;5034796;28;20099;-75
2022/01/28 03:43:42;;;;;;;21.73;6.07;;;5.40;99.90;;;;;;5034336;28;20049;-76
2022/01/28 03:46:09;;;;;;;32.63;6.22;;;5.30;99.90;;;;;;5036042;28;20057;-75
2022/01/28 03:48:35;;;;;;;36.55;7.28;;;5.20;99.90;;;;;;5038148;28;20448;-74
2022/01/28 03:51:01;;;;;;;32.20;7.20;;;5.30;99.90;;;;;;5038927;28;20045;-74
2022/01/28 03:53:26;;;;;;;32.00;5.60;;;5.30;99.90;;;;;;5038398;28;20041;-75
2022/01/28 03:55:53;;;;;;;19.88;4.78;;;5.20;99.90;;;;;;5038840;28;20088;-75
2022/01/28 03:58:19;;;;;;;37.33;8.52;;;5.20;99.90;;;;;;5037491;28;20053;-74
2022/01/28 04:00:46;;;;;;;32.88;6.82;;;5.20;99.90;;;;;;5038626;28;20037;-75
2022/01/28 04:03:36;;;;;;;22.63;5.93;;;5.20;99.90;;;;;;5038639;28;20077;-76
2022/01/28 04:13:56;;;;;;;28.73;6.65;;;5.10;99.90;;;;;;5037796;28;20475;-74
2022/01/28 04:18:48;;;;;;;26.95;6.03;;;5.20;99.90;;;;;;5037980;28;20053;-73
2022/01/28 04:21:13;;;;;;;25.85;5.25;;;5.20;99.90;;;;;;5037588;28;20053;-75
2022/01/28 04:23:39;;;;;;;27.00;5.97;;;5.20;99.90;;;;;;5037791;28;20359;-76
2022/01/28 04:26:05;;;;;;;28.38;5.80;;;5.10;99.90;;;;;;5019077;28;20357;-74
2022/01/28 04:28:30;;;;;;;29.70;7.50;;;5.10;99.90;;;;;;5018406;28;20034;-76
2022/01/28 04:30:56;;;;;;;27.98;5.70;;;5.20;99.90;;;;;;5018438;28;20452;-75
2022/01/28 04:33:22;;;;;;;35.15;6.38;;;5.20;99.90;;;;;;5017634;28;20054;-75
2022/01/28 04:35:51;;;;;;;32.45;6.07;;;5.30;99.90;;;;;;5020016;28;20046;-76
2022/01/28 04:38:36;;;;;;;27.63;6.32;;;5.30;99.90;;;;;;5038061;28;20368;-75
2022/01/28 04:43:41;;;;;;;31.38;6.70;;;5.50;99.90;;;;;;5037376;28;20049;-75
2022/01/28 04:46:28;;;;;;;31.33;6.75;;;5.50;99.90;;;;;;5016921;28;20117;-74
2022/01/28 04:49:02;;;;;;;35.03;6.93;;;5.60;99.90;;;;;;5017973;28;20054;-76
2022/01/28 04:56:42;;;;;;;40.30;7.32;;;5.40;99.90;;;;;;5036784;28;20053;-75
2022/01/28 04:59:34;;;;;;;37.17;6.78;;;5.40;99.90;;;;;;5037527;28;20371;-75
2022/01/28 05:05:03;;;;;;;44.13;7.18;;;5.10;99.90;;;;;;5036858;28;20060;-74
2022/01/28 05:08:37;;;;;;;34.25;7.85;;;5.10;99.90;;;;;;5037531;28;20097;-75
2022/01/28 05:26:27;;;;;;;25.23;5.95;;;4.80;99.90;;;;;;5021002;28;20558;-76
2022/01/28 05:28:53;;;;;;;24.05;5.40;;;4.90;99.90;;;;;;5037146;28;20069;-75
2022/01/28 05:31:20;;;;;;;24.30;6.20;;;4.90;99.90;;;;;;5037014;28;20132;-75
2022/01/28 05:33:47;;;;;;;28.30;6.20;;;4.90;99.90;;;;;;5037306;28;20075;-75
2022/01/28 05:36:12;;;;;;;30.25;4.72;;;4.80;99.90;;;;;;5036400;28;20112;-74
2022/01/28 05:38:38;;;;;;;31.70;7.00;;;4.80;99.90;;;;;;5036872;28;20141;-75
2022/01/28 05:41:04;;;;;;;28.02;6.53;;;4.70;99.90;;;;;;5036725;28;20128;-76
2022/01/28 05:43:30;;;;;;;28.55;6.45;;;4.60;99.90;;;;;;5034807;28;20466;-75
2022/01/28 05:45:55;;;;;;;22.15;4.55;;;4.70;99.90;;;;;;5016974;28;20054;-76
2022/01/28 05:48:21;;;;;;;29.17;5.47;;;4.60;99.90;;;;;;5015987;28;20054;-76
2022/01/28 05:50:47;;;;;;;29.85;6.45;;;4.60;99.90;;;;;;5024130;28;20113;-74
2022/01/28 05:53:13;;;;;;;25.00;5.20;;;4.60;99.90;;;;;;5036505;28;20056;-75
2022/01/28 05:55:39;;;;;;;26.58;6.10;;;4.60;99.90;;;;;;5036542;28;20057;-76
2022/01/28 05:58:05;;;;;;;25.83;5.05;;;4.70;99.90;;;;;;5036621;28;20041;-75
2022/01/28 06:00:31;;;;;;;47.17;8.90;;;4.70;99.90;;;;;;5036663;28;20045;-76
2022/01/28 06:02:57;;;;;;;28.67;5.32;;;4.70;99.90;;;;;;5035378;28;20523;-75
2022/01/28 06:05:23;;;;;;;35.28;5.60;;;4.70;99.90;;;;;;5036057;28;20120;-75
2022/01/28 06:07:48;;;;;;;29.27;5.50;;;4.70;99.90;;;;;;5036076;28;20171;-75
2022/01/28 06:10:15;;;;;;;25.98;6.50;;;4.60;99.90;;;;;;5035831;28;20053;-75
2022/01/28 06:12:47;;;;;;;25.15;5.63;;;4.60;99.90;;;;;;5036266;28;20053;-75
2022/01/28 06:15:13;;;;;;;33.67;6.15;;;4.60;99.90;;;;;;5020431;28;20101;-75
2022/01/28 06:17:39;;;;;;;24.23;5.75;;;4.50;99.90;;;;;;5016449;28;20050;-76
2022/01/28 06:20:07;;;;;;;31.45;4.82;;;4.50;99.90;;;;;;5021012;28;20128;-75
2022/01/28 06:22:40;;;;;;;27.17;5.43;;;4.40;99.90;;;;;;5035666;28;20045;-74
2022/01/28 06:25:08;;;;;;;33.10;6.20;;;4.30;99.90;;;;;;5035963;28;20038;-74
2022/01/28 06:27:34;;;;;;;23.48;5.85;;;4.30;99.90;;;;;;5035733;28;20459;-74
2022/01/28 06:29:59;;;;;;;24.20;5.28;;;4.30;99.90;;;;;;5035867;28;20049;-75
2022/01/28 06:32:25;;;;;;;28.50;6.40;;;4.30;99.90;;;;;;5035592;28;20128;-75
2022/01/28 06:34:50;;;;;;;27.05;4.60;;;4.30;99.90;;;;;;5034321;28;20056;-76
2022/01/28 06:37:16;;;;;;;23.63;4.70;;;4.30;99.90;;;;;;5033459;28;20415;-74
2022/01/28 06:39:42;;;;;;;24.42;4.78;;;4.30;99.90;;;;;;5035652;28;20075;-75
2022/01/28 06:42:08;;;;;;;31.83;5.10;;;4.30;99.90;;;;;;5035469;28;20133;-75
2022/01/28 06:44:33;;;;;;;28.10;6.53;;;4.30;99.90;;;;;;5025912;28;20073;-75
2022/01/28 06:46:59;;;;;;;34.25;6.60;;;4.20;99.90;;;;;;5034745;28;20068;-75
2022/01/28 06:49:24;;;;;;;28.55;6.13;;;4.20;99.90;;;;;;5035375;28;20132;-76
2022/01/28 06:51:50;;;;;;;28.70;7.38;;;4.20;99.90;;;;;;5035554;28;20052;-74
2022/01/28 06:54:15;;;;;;;31.55;6.53;;;4.10;99.90;;;;;;5035355;28;20049;-75
2022/01/28 06:56:41;;;;;;;24.15;5.47;;;4.10;99.90;;;;;;5035482;28;20037;-74
2022/01/28 06:59:06;;;;;;;36.92;5.80;;;4.10;99.90;;;;;;5034681;28;20041;-74
2022/01/28 07:01:32;;;;;;;48.33;9.00;;;4.10;99.90;;;;;;5035187;28;20042;-74
2022/01/28 07:03:57;;;;;;;31.90;6.43;;;4.10;99.90;;;;;;5034973;28;20076;-75
2022/01/28 07:06:23;;;;;;;37.80;7.35;;;4.00;99.90;;;;;;5034890;28;20049;-74
2022/01/28 07:08:49;;;;;;;30.88;5.70;;;4.20;99.90;;;;;;5034508;28;20083;-74
2022/01/28 07:11:15;;;;;;;30.67;5.68;;;4.10;99.90;;;;;;5035177;28;20144;-74
2022/01/28 07:13:41;;;;;;;33.30;5.70;;;4.10;99.90;;;;;;5033291;28;20145;-75
2022/01/28 07:16:06;;;;;;;31.60;5.40;;;4.00;99.90;;;;;;5033928;28;20072;-74
2022/01/28 07:18:32;;;;;;;29.35;5.90;;;4.00;99.90;;;;;;5034654;28;20124;-75
2022/01/28 07:20:57;;;;;;;34.80;7.35;;;4.00;99.90;;;;;;5033130;28;20132;-75
2022/01/28 07:23:23;;;;;;;27.75;6.28;;;4.00;99.90;;;;;;5035267;28;20340;-75
2022/01/28 07:25:49;;;;;;;27.33;6.25;;;4.00;99.90;;;;;;5034760;28;20079;-74
2022/01/28 07:28:14;;;;;;;30.27;7.10;;;3.90;99.90;;;;;;5034028;28;20049;-75
2022/01/28 07:30:40;;;;;;;33.80;5.93;;;3.90;99.90;;;;;;5035000;28;20056;-75
2022/01/28 07:33:08;;;;;;;35.33;5.43;;;3.90;99.90;;;;;;5034539;28;20049;-75
2022/01/28 07:35:34;;;;;;;33.17;6.55;;;3.90;99.90;;;;;;5035084;28;20056;-75
2022/01/28 07:38:00;;;;;;;26.27;5.57;;;3.90;99.90;;;;;;5034824;28;20397;-74
2022/01/28 07:40:25;;;;;;;31.35;6.15;;;3.90;99.90;;;;;;5034689;28;20046;-75
2022/01/28 07:42:51;;;;;;;34.53;6.07;;;3.90;99.90;;;;;;5033036;28;20045;-74
2022/01/28 07:45:16;;;;;;;25.67;4.85;;;4.00;99.90;;;;;;5014831;28;20408;-73
2022/01/28 07:47:43;;;;;;;37.67;6.72;;;4.00;99.90;;;;;;5017792;28;20392;-80
2022/01/28 07:50:11;;;;;;;39.22;8.38;;;4.10;99.90;;;;;;5033950;28;20341;-79
2022/01/28 07:52:37;;;;;;;33.50;7.28;;;4.10;99.90;;;;;;5033559;28;20053;-76
2022/01/28 07:55:07;;;;;;;26.13;5.93;;;4.10;99.90;;;;;;5034474;28;20045;-75
2022/01/28 07:57:34;;;;;;;39.50;7.10;;;4.00;99.90;;;;;;5030360;28;20563;-75
2022/01/28 08:00:00;;;;;;;30.33;7.25;;;4.00;99.90;;;;;;5033391;28;20431;-76
2022/01/28 08:02:27;;;;;;;40.10;6.82;;;4.00;99.90;;;;;;5034565;28;20065;-74
2022/01/28 08:04:53;;;;;;;46.47;6.82;;;4.00;99.90;;;;;;5034353;28;20060;-75
2022/01/28 08:07:18;;;;;;;35.85;6.47;;;4.00;99.90;;;;;;5034587;28;20045;-74
2022/01/28 08:09:44;;;;;;;32.35;6.93;;;4.00;99.90;;;;;;5034208;28;20083;-75
2022/01/28 08:12:09;;;;;;;43.30;8.90;;;4.00;99.90;;;;;;5033581;28;20088;-77
2022/01/28 08:14:35;;;;;;;35.55;7.40;;;4.00;99.90;;;;;;5034036;28;20060;-77
2022/01/28 08:17:01;;;;;;;35.28;5.63;;;3.90;99.90;;;;;;5034311;28;20352;-77
2022/01/28 08:19:26;;;;;;;24.63;5.20;;;4.00;99.90;;;;;;5034355;28;20056;-78
2022/01/28 08:21:52;;;;;;;39.28;6.45;;;3.90;99.90;;;;;;5028009;28;20057;-74
2022/01/28 08:24:17;;;;;;;39.05;6.95;;;3.90;99.90;;;;;;5014778;28;20058;-76
2022/01/28 08:26:43;;;;;;;33.20;6.95;;;4.00;99.90;;;;;;5013827;28;20052;-75
2022/01/28 08:29:11;;;;;;;36.22;7.28;;;4.00;99.90;;;;;;5014685;28;20053;-79
2022/01/28 08:31:37;;;;;;;44.88;7.60;;;4.00;99.90;;;;;;5014348;28;20133;-77
2022/01/28 08:34:03;;;;;;;41.08;7.03;;;3.90;99.90;;;;;;5018227;28;20134;-76
2022/01/28 08:36:29;;;;;;;35.75;8.85;;;4.00;99.90;;;;;;5018294;28;20352;-77
2022/01/28 08:38:55;;;;;;;44.22;6.78;;;4.00;99.90;;;;;;5033958;28;20124;-76
2022/01/28 08:41:22;;;;;;;32.30;8.10;;;4.10;99.90;;;;;;5037242;28;20460;-77
2022/01/28 08:43:48;;;;;;;36.35;7.40;;;4.10;99.90;;;;;;5036132;28;20068;-77
2022/01/28 08:46:13;;;;;;;35.08;6.50;;;4.20;99.90;;;;;;5036516;28;20057;-76
2022/01/28 08:48:39;;;;;;;31.15;6.10;;;4.30;99.90;;;;;;5037493;28;20068;-77
2022/01/28 08:51:05;;;;;;;41.83;8.82;;;4.30;99.90;;;;;;5037355;28;20079;-78
2022/01/28 08:53:31;;;;;;;32.03;7.25;;;4.30;99.90;;;;;;5038109;28;20071;-78
2022/01/28 08:55:57;;;;;;;44.53;7.18;;;4.40;99.90;;;;;;5037568;28;20049;-74
2022/01/28 08:58:23;;;;;;;35.38;8.07;;;4.40;99.90;;;;;;5037680;28;20041;-75
2022/01/28 09:00:50;;;;;;;36.00;7.15;;;4.50;99.90;;;;;;5035144;28;20132;-73
2022/01/28 09:03:18;;;;;;;29.75;6.90;;;4.40;99.90;;;;;;5027941;28;20057;-78
2022/01/28 09:05:44;;;;;;;42.05;6.03;;;4.60;99.90;;;;;;5036303;28;20491;-74
2022/01/28 09:08:10;;;;;;;38.17;7.00;;;4.70;99.90;;;;;;5037402;28;20068;-74
2022/01/28 09:10:41;;;;;;;29.40;6.25;;;4.70;99.90;;;;;;5037289;28;20154;-73
2022/01/28 09:15:35;;;;;;;29.45;6.50;;;4.90;99.90;;;;;;5037340;28;20128;-73
2022/01/28 09:18:01;;;;;;;46.78;8.07;;;5.00;99.90;;;;;;5036934;28;20399;-75
2022/01/28 09:20:29;;;;;;;32.33;6.18;;;5.10;99.90;;;;;;5035163;28;20103;-73
2022/01/28 09:22:57;;;;;;;39.78;7.35;;;5.00;99.90;;;;;;5035235;28;20045;-75
2022/01/28 09:25:22;;;;;;;32.22;7.65;;;5.10;99.90;;;;;;5036373;28;20047;-77
2022/01/28 09:27:48;;;;;;;29.13;6.88;;;5.20;99.90;;;;;;5036398;28;20041;-72
2022/01/28 09:30:13;;;;;;;35.95;6.53;;;5.20;99.90;;;;;;5036955;28;20055;-81
2022/01/28 09:32:39;;;;;;;32.33;6.68;;;5.20;99.90;;;;;;5018187;28;20073;-76
2022/01/28 09:35:05;;;;;;;30.42;6.20;;;5.20;99.90;;;;;;5036643;28;20045;-75
2022/01/28 09:37:31;;;;;;;29.60;5.47;;;5.20;99.90;;;;;;5036462;28;20049;-76
2022/01/28 09:39:56;;;;;;;27.58;6.00;;;5.20;99.90;;;;;;5036595;28;20037;-76
2022/01/28 09:42:27;;;;;;;20.23;5.78;;;5.20;99.90;;;;;;5035525;28;20549;-76
2022/01/28 09:44:54;;;;;;;32.03;6.03;;;5.30;99.90;;;;;;5034542;28;20081;-75
2022/01/28 09:47:20;;;;;;;27.27;5.78;;;5.40;99.90;;;;;;5036527;28;20367;-77
2022/01/28 09:49:47;;;;;;;31.15;5.53;;;5.40;99.90;;;;;;5036354;28;20118;-77
2022/01/28 09:52:12;;;;;;;33.83;6.70;;;5.50;99.90;;;;;;5036433;28;20110;-78
2022/01/28 09:54:39;;;;;;;25.98;5.07;;;5.60;99.90;;;;;;5035561;28;20120;-80
2022/01/28 09:57:09;;;;;;;31.45;5.15;;;5.70;99.90;;;;;;5036055;28;20034;-75
2022/01/28 09:59:35;;;;;;;18.65;4.55;;;5.80;99.90;;;;;;5036597;28;20049;-76
2022/01/28 10:02:01;;;;;;;20.42;4.70;;;5.80;99.90;;;;;;5034468;28;20456;-78
2022/01/28 10:04:26;;;;;;;28.88;5.00;;;5.90;99.90;;;;;;5029554;28;20053;-76
2022/01/28 10:06:54;;;;;;;25.98;4.32;;;5.90;99.90;;;;;;5036428;28;20424;-76
2022/01/28 10:09:22;;;;;;;27.80;5.78;;;5.90;99.90;;;;;;5034548;28;20080;-77
2022/01/28 10:11:51;;;;;;;25.50;4.97;;;6.00;99.90;;;;;;5035305;28;20045;-76
2022/01/28 10:14:21;;;;;;;28.55;5.00;;;6.00;99.90;;;;;;5034776;28;20096;-78
2022/01/28 10:16:58;;;;;;;29.52;4.97;;;6.00;99.90;;;;;;5034837;28;20053;-78
2022/01/28 10:19:26;;;;;;;28.08;5.72;;;6.10;99.90;;;;;;5035320;28;20132;-78
2022/01/28 10:21:53;;;;;;;30.35;5.30;;;6.10;99.90;;;;;;5035060;28;20428;-77
2022/01/28 10:24:27;;;;;;;28.05;5.97;;;6.10;99.90;;;;;;5036007;28;20045;-76
2022/01/28 10:27:05;;;;;;;25.50;5.18;;;6.20;99.90;;;;;;5034966;28;20464;-78
2022/01/28 10:29:42;;;;;;;24.38;4.80;;;6.30;99.90;;;;;;5034446;28;20364;-77
2022/01/28 10:32:17;;;;;;;23.27;5.53;;;6.40;99.90;;;;;;5034804;28;20387;-78
2022/01/28 10:34:48;;;;;;;27.35;5.30;;;6.40;99.90;;;;;;5035749;28;20128;-78
2022/01/28 10:37:23;;;;;;;22.27;5.47;;;6.50;99.90;;;;;;5035035;28;20533;-78
2022/01/28 10:39:59;;;;;;;26.08;5.53;;;6.60;99.90;;;;;;5034942;28;20056;-78
2022/01/28 10:42:39;;;;;;;19.00;5.32;;;6.70;99.90;;;;;;5035527;28;20516;-78
2022/01/28 10:45:17;;;;;;;21.63;5.85;;;6.70;99.90;;;;;;5034650;28;20387;-78
2022/01/28 10:47:54;;;;;;;24.48;5.22;;;6.70;99.90;;;;;;5033978;28;20081;-78
2022/01/28 10:50:31;;;;;;;15.95;4.15;;;6.80;99.90;;;;;;5035729;28;20351;-78
2022/01/28 10:53:10;;;;;;;25.85;4.95;;;6.80;99.90;;;;;;5047442;28;20045;-78
2022/01/28 10:55:39;;;;;;;25.70;5.10;;;6.80;99.90;;;;;;5014601;28;20065;-78
2022/01/28 10:58:16;;;;;;;30.20;5.93;;;6.80;99.90;;;;;;5015363;28;20061;-78
2022/01/28 11:00:44;;;;;;;30.20;5.60;;;6.80;99.90;;;;;;5014657;28;20050;-78
2022/01/28 11:03:11;;;;;;;22.73;5.40;;;6.90;99.90;;;;;;5022390;28;20045;-78
2022/01/28 11:05:38;;;;;;;21.80;4.95;;;6.90;99.90;;;;;;5034234;28;20064;-78
2022/01/28 11:08:06;;;;;;;23.80;5.63;;;6.80;99.90;;;;;;5034819;28;20108;-78
2022/01/28 11:10:32;;;;;;;31.25;6.43;;;6.80;99.90;;;;;;5033211;28;20049;-78
2022/01/28 11:12:59;;;;;;;21.85;4.25;;;6.80;99.90;;;;;;5035024;28;20456;-78
2022/01/28 11:15:25;;;;;;;22.35;5.63;;;6.90;99.90;;;;;;5035245;28;20124;-78
2022/01/28 11:17:52;;;;;;;17.52;4.72;;;6.90;99.90;;;;;;5034414;28;20128;-78
2022/01/28 11:20:49;;;;;;;25.33;4.22;;;6.80;99.90;;;;;;5034559;28;20140;-78
2022/01/28 11:23:23;;;;;;;25.13;5.10;;;6.80;99.90;;;;;;5035080;28;20056;-78
2022/01/28 11:26:19;;;;;;;29.00;4.45;;;6.80;99.90;;;;;;5034190;28;20448;-78
2022/01/28 11:28:46;;;;;;;22.58;4.85;;;6.80;99.90;;;;;;5034304;28;20045;-78
2022/01/28 11:31:14;;;;;;;25.38;5.72;;;6.80;99.90;;;;;;5033722;28;20046;-78
2022/01/28 11:33:48;;;;;;;19.98;5.05;;;6.90;99.90;;;;;;5034041;28;20050;-78
2022/01/28 11:36:33;;;;;;;31.70;5.10;;;6.90;99.90;;;;;;5034761;28;20048;-78
2022/01/28 11:39:20;;;;;;;19.42;4.78;;;6.90;99.90;;;;;;5034862;28;20056;-78
2022/01/28 11:42:11;;;;;;;21.45;5.07;;;7.00;99.90;;;;;;5034344;28;20489;-78
2022/01/28 11:44:40;;;;;;;19.40;4.03;;;7.00;99.90;;;;;;5034742;28;20042;-78
2022/01/28 11:47:09;;;;;;;24.77;6.28;;;7.10;99.90;;;;;;5034687;28;20060;-78
2022/01/28 11:49:55;;;;;;;23.42;4.80;;;7.10;99.90;;;;;;5033771;28;20483;-78
2022/01/28 11:52:22;;;;;;;24.45;5.50;;;7.10;99.90;;;;;;5034587;28;20045;-78
2022/01/28 11:54:48;;;;;;;26.20;5.05;;;7.20;99.90;;;;;;5034155;28;20128;-78
2022/01/28 11:57:15;;;;;;;22.02;4.93;;;7.20;99.90;;;;;;5034367;28;20188;-78
2022/01/28 11:59:41;;;;;;;23.13;5.93;;;7.20;99.90;;;;;;5034466;28;20049;-78
2022/01/28 12:02:09;;;;;;;22.80;4.55;;;7.20;99.90;;;;;;5034143;28;20364;-78
2022/01/28 12:04:42;;;;;;;27.45;5.80;;;7.30;99.90;;;;;;5033719;28;20474;-78
2022/01/28 12:07:21;;;;;;;28.73;4.85;;;7.40;99.90;;;;;;5036203;28;20414;-78
2022/01/28 12:09:52;;;;;;;26.38;5.07;;;7.30;99.90;;;;;;5038268;28;20057;-78
2022/01/28 12:12:42;;;;;;;27.02;4.95;;;7.40;99.90;;;;;;5038415;28;20056;-78
2022/01/28 12:15:14;;;;;;;24.58;5.28;;;7.40;99.90;;;;;;5030617;28;20061;-78
2022/01/28 12:17:40;;;;;;;21.80;4.30;;;7.40;99.90;;;;;;5037912;28;20053;-79
2022/01/28 12:20:24;;;;;;;23.65;5.22;;;7.50;99.90;;;;;;5038031;28;20045;-78
2022/01/28 12:23:07;;;;;;;22.98;5.18;;;7.50;99.90;;;;;;5038488;28;20103;-75
2022/01/28 12:25:36;;;;;;;24.05;4.88;;;7.40;99.90;;;;;;5038030;28;20042;-74
2022/01/28 12:28:18;;;;;;;20.13;4.13;;;7.30;99.90;;;;;;5037790;28;20045;-74
2022/01/28 12:30:45;;;;;;;14.18;4.05;;;7.40;99.90;;;;;;5037979;28;20041;-78
2022/01/28 12:33:11;;;;;;;22.73;4.20;;;7.40;99.90;;;;;;5038243;28;20213;-78
2022/01/28 12:35:38;;;;;;;19.38;4.78;;;7.40;99.90;;;;;;5035885;28;20136;-75
2022/01/28 12:38:05;;;;;;;23.17;3.88;;;7.50;99.90;;;;;;5037745;28;20336;-79
2022/01/28 12:40:36;;;;;;;23.00;4.50;;;7.30;99.90;;;;;;5037635;28;20103;-77
2022/01/28 12:43:06;;;;;;;26.00;5.63;;;7.40;99.90;;;;;;5037747;28;20142;-77
2022/01/28 12:45:32;;;;;;;26.85;4.28;;;7.40;99.90;;;;;;5037613;28;20447;-75
2022/01/28 12:47:58;;;;;;;28.30;4.38;;;7.60;99.90;;;;;;5036618;28;20077;-78
2022/01/28 12:50:24;;;;;;;22.50;4.43;;;7.70;99.90;;;;;;5036398;28;20166;-78
2022/01/28 12:52:50;;;;;;;25.17;4.95;;;7.80;99.90;;;;;;5036700;28;20129;-79
2022/01/28 12:55:16;;;;;;;17.23;3.35;;;7.90;99.90;;;;;;5037273;28;20124;-77
2022/01/28 12:57:42;;;;;;;25.17;4.70;;;7.80;99.90;;;;;;5036759;28;20045;-78
2022/01/28 13:00:09;;;;;;;17.75;4.38;;;7.80;99.90;;;;;;5036922;28;20042;-76
2022/01/28 13:02:35;;;;;;;21.13;4.35;;;7.80;99.90;;;;;;5034773;28;20129;-76
2022/01/28 13:10:27;;;;;;;16.75;3.75;;;7.80;99.90;;;;;;5026273;28;20486;-76
2022/01/28 13:13:05;;;;;;;17.17;3.80;;;7.70;99.90;;;;;;5037598;28;20132;-76
2022/01/28 13:15:31;;;;;;;23.02;4.28;;;7.70;99.90;;;;;;5037135;28;20375;-75
2022/01/28 13:18:00;;;;;;;25.30;3.83;;;7.60;99.90;;;;;;5036001;28;20049;-76
2022/01/28 13:20:40;;;;;;;18.65;4.22;;;7.60;99.90;;;;;;5036875;28;20068;-77
2022/01/28 13:23:06;;;;;;;22.13;4.40;;;7.50;99.90;;;;;;5037227;28;20037;-74
2022/01/28 13:25:32;;;;;;;18.63;4.15;;;7.50;99.90;;;;;;5037089;28;20352;-74
2022/01/28 13:28:00;;;;;;;18.33;4.07;;;7.50;99.90;;;;;;5036587;28;20042;-77
2022/01/28 13:30:28;;;;;;;20.00;3.53;;;7.60;99.90;;;;;;5036089;28;20091;-77
2022/01/28 13:33:02;;;;;;;20.05;3.92;;;7.60;99.90;;;;;;5036737;28;20474;-74
2022/01/28 13:35:28;;;;;;;;;;;7.70;99.90;;;;;;5036625;28;20356;-72
2022/01/28 13:38:01;;;;;;;18.30;3.95;;;7.70;99.90;;;;;;5035438;28;19979;-73
2022/01/28 13:40:36;;;;;;;22.02;4.35;;;7.70;99.90;;;;;;5035730;28;20099;-74
2022/01/28 13:43:16;;;;;;;18.70;5.38;;;7.70;99.90;;;;;;5036528;28;20075;-74
2022/01/28 13:46:08;;;;;;;22.70;3.58;;;7.70;99.90;;;;;;5016954;28;20050;-73
2022/01/28 13:48:32;;;;;;;18.77;3.67;;;7.70;99.90;;;;;;5016193;28;20061;-72
2022/01/28 13:51:16;;;;;;;26.08;5.03;;;7.60;99.90;;;;;;5035131;28;20052;-74
2022/01/28 13:56:35;;;;;;;17.42;3.70;;;7.70;99.90;;;;;;5036690;28;20053;-73
2022/01/28 13:59:01;;;;;;;21.15;4.70;;;7.90;99.90;;;;;;5036132;28;20053;-73
2022/01/28 14:01:28;;;;;;;22.45;4.45;;;7.90;99.90;;;;;;5036345;28;20391;-73
2022/01/28 14:04:02;;;;;;;17.73;4.65;;;7.80;99.90;;;;;;5001564;28;20049;-74
2022/01/28 14:06:31;;;;;;;18.65;4.65;;;8.00;99.90;;;;;;5036311;28;20049;-76
2022/01/28 14:09:07;;;;;;;18.90;3.35;;;7.90;99.90;;;;;;5036318;28;20049;-77
2022/01/28 14:11:39;;;;;;;19.77;4.47;;;7.90;99.90;;;;;;5035811;28;20115;-77
2022/01/28 14:14:16;;;;;;;19.85;4.03;;;7.90;99.90;;;;;;5036375;28;20045;-77
2022/01/28 14:16:44;;;;;;;13.13;3.47;;;7.80;99.90;;;;;;5034820;28;20045;-77
2022/01/28 14:19:10;;;;;;;18.23;4.13;;;7.70;99.90;;;;;;5032493;28;20104;-78
2022/01/28 14:21:37;;;;;;;21.58;4.10;;;7.60;99.90;;;;;;5035977;28;20049;-78
2022/01/28 14:24:03;;;;;;;15.60;3.05;;;7.60;99.90;;;;;;5034695;28;20098;-79
2022/01/28 14:26:30;;;;;;;16.48;3.03;;;7.50;99.90;;;;;;5018790;28;20061;-78
2022/01/28 14:31:29;;;;;;;15.32;3.08;;;7.40;99.90;;;;;;5034460;28;20080;-79